Main page
METAR-TAF:

METAR-TAF

Airports :

College Park Airport

College Park, Maryland, United States

latitude: 38-58-50N, longitude: 076-55-20W, elevation: 49 ft

Current weather observation

The report was made 16 minutes ago, at 21:46 UTC
Wind 8 mph from the North/Northwest, varying between West/Northwest and North
Temperature 54°F
Humidity 44%
Pressure 29.79 in. Hg
Visibility: 10 miles
Overcast at a height of 7000 ft

METAR: KCGS 012146Z AUTO 33007KT 290V350 10SM OVC070 12/00 A2979 RMK AO1 T01200004

Time: 18:02 (22:02 UTC)


TAF: missing

Weather observations and forecasts of more than 4000 airports (METAR and TAF reports).

The available stations are represented by yellow and red dots on the map.

Hover mouse over dot to see the name of the station.

Then click to see weather observations and forecasts.

To change the map : click on the green buttons with a black cross to zoom in, on the green button with a dash to zoom out, or on the green arrows for adjacent maps.


METAR-TAF: